sensor_id;sensor_type;location;lat;lon;timestamp;P1;durP1;ratioP1;P2;durP2;ratioP2
23782;SDS011;12071;50.850;4.446;2024-01-07T00:02:10;15.75;;;10.95;;
23782;SDS011;12071;50.850;4.446;2024-01-07T00:04:36;15.80;;;11.95;;
23782;SDS011;12071;50.850;4.446;2024-01-07T00:07:04;15.18;;;10.35;;
23782;SDS011;12071;50.850;4.446;2024-01-07T00:09:30;15.02;;;11.25;;
23782;SDS011;12071;50.850;4.446;2024-01-07T00:11:56;15.32;;;11.30;;
23782;SDS011;12071;50.850;4.446;2024-01-07T00:14:21;16.70;;;11.35;;
23782;SDS011;12071;50.850;4.446;2024-01-07T00:16:47;16.60;;;11.93;;
23782;SDS011;12071;50.850;4.446;2024-01-07T00:19:13;16.60;;;12.10;;
23782;SDS011;12071;50.850;4.446;2024-01-07T00:21:38;16.88;;;12.18;;
23782;SDS011;12071;50.850;4.446;2024-01-07T00:24:04;17.00;;;12.70;;
23782;SDS011;12071;50.850;4.446;2024-01-07T00:26:30;15.60;;;11.88;;
23782;SDS011;12071;50.850;4.446;2024-01-07T00:28:56;16.67;;;12.45;;
23782;SDS011;12071;50.850;4.446;2024-01-07T00:31:21;17.75;;;12.57;;
23782;SDS011;12071;50.850;4.446;2024-01-07T00:33:47;17.10;;;12.15;;
23782;SDS011;12071;50.850;4.446;2024-01-07T00:36:13;17.40;;;12.32;;
23782;SDS011;12071;50.850;4.446;2024-01-07T00:38:39;16.90;;;12.18;;
23782;SDS011;12071;50.850;4.446;2024-01-07T00:41:04;17.83;;;12.43;;
23782;SDS011;12071;50.850;4.446;2024-01-07T00:43:30;17.48;;;12.63;;
23782;SDS011;12071;50.850;4.446;2024-01-07T00:45:56;18.90;;;13.38;;
23782;SDS011;12071;50.850;4.446;2024-01-07T00:48:22;16.30;;;12.57;;
23782;SDS011;12071;50.850;4.446;2024-01-07T00:50:48;17.48;;;12.55;;
23782;SDS011;12071;50.850;4.446;2024-01-07T00:53:13;18.35;;;12.90;;
23782;SDS011;12071;50.850;4.446;2024-01-07T00:55:39;18.77;;;13.10;;
23782;SDS011;12071;50.850;4.446;2024-01-07T00:58:05;17.40;;;12.85;;
23782;SDS011;12071;50.850;4.446;2024-01-07T01:00:30;19.23;;;13.02;;
23782;SDS011;12071;50.850;4.446;2024-01-07T01:02:56;18.35;;;13.05;;
23782;SDS011;12071;50.850;4.446;2024-01-07T01:05:21;17.15;;;13.30;;
23782;SDS011;12071;50.850;4.446;2024-01-07T01:07:47;16.65;;;12.98;;
23782;SDS011;12071;50.850;4.446;2024-01-07T01:10:13;18.13;;;12.60;;
23782;SDS011;12071;50.850;4.446;2024-01-07T01:12:42;19.27;;;13.13;;
23782;SDS011;12071;50.850;4.446;2024-01-07T01:15:09;16.40;;;11.85;;
23782;SDS011;12071;50.850;4.446;2024-01-07T01:17:35;18.02;;;12.70;;
23782;SDS011;12071;50.850;4.446;2024-01-07T01:20:01;18.40;;;13.00;;
23782;SDS011;12071;50.850;4.446;2024-01-07T01:22:26;17.25;;;12.80;;
23782;SDS011;12071;50.850;4.446;2024-01-07T01:24:53;17.10;;;12.52;;
23782;SDS011;12071;50.850;4.446;2024-01-07T01:27:18;16.77;;;11.90;;
23782;SDS011;12071;50.850;4.446;2024-01-07T01:29:44;17.52;;;13.27;;
23782;SDS011;12071;50.850;4.446;2024-01-07T01:32:10;18.17;;;13.30;;
23782;SDS011;12071;50.850;4.446;2024-01-07T01:34:36;18.63;;;13.07;;
23782;SDS011;12071;50.850;4.446;2024-01-07T01:37:02;16.88;;;12.90;;
23782;SDS011;12071;50.850;4.446;2024-01-07T01:39:28;18.88;;;13.52;;
23782;SDS011;12071;50.850;4.446;2024-01-07T01:41:54;17.90;;;13.50;;
23782;SDS011;12071;50.850;4.446;2024-01-07T01:44:20;18.52;;;14.25;;
23782;SDS011;12071;50.850;4.446;2024-01-07T01:46:46;19.42;;;14.10;;
23782;SDS011;12071;50.850;4.446;2024-01-07T01:49:12;19.00;;;14.15;;
23782;SDS011;12071;50.850;4.446;2024-01-07T01:51:38;19.83;;;15.05;;
23782;SDS011;12071;50.850;4.446;2024-01-07T01:54:04;20.33;;;14.82;;
23782;SDS011;12071;50.850;4.446;2024-01-07T01:56:30;21.27;;;14.57;;
23782;SDS011;12071;50.850;4.446;2024-01-07T01:58:58;19.08;;;14.52;;
23782;SDS011;12071;50.850;4.446;2024-01-07T02:01:24;20.42;;;13.82;;
23782;SDS011;12071;50.850;4.446;2024-01-07T02:03:50;19.52;;;14.00;;
23782;SDS011;12071;50.850;4.446;2024-01-07T02:06:17;19.45;;;14.00;;
23782;SDS011;12071;50.850;4.446;2024-01-07T02:08:44;19.55;;;13.65;;
23782;SDS011;12071;50.850;4.446;2024-01-07T02:11:17;17.70;;;13.13;;
23782;SDS011;12071;50.850;4.446;2024-01-07T02:13:44;18.90;;;13.40;;
23782;SDS011;12071;50.850;4.446;2024-01-07T02:16:10;19.35;;;13.93;;
23782;SDS011;12071;50.850;4.446;2024-01-07T02:18:36;17.00;;;12.48;;
23782;SDS011;12071;50.850;4.446;2024-01-07T02:21:04;16.52;;;12.27;;
23782;SDS011;12071;50.850;4.446;2024-01-07T02:23:29;18.05;;;12.40;;
23782;SDS011;12071;50.850;4.446;2024-01-07T02:25:55;15.73;;;12.02;;
23782;SDS011;12071;50.850;4.446;2024-01-07T02:28:21;16.60;;;12.45;;
23782;SDS011;12071;50.850;4.446;2024-01-07T02:30:46;16.20;;;12.45;;
23782;SDS011;12071;50.850;4.446;2024-01-07T02:33:12;16.77;;;11.82;;
23782;SDS011;12071;50.850;4.446;2024-01-07T02:35:38;15.70;;;11.50;;
23782;SDS011;12071;50.850;4.446;2024-01-07T02:38:04;15.38;;;12.25;;
23782;SDS011;12071;50.850;4.446;2024-01-07T02:40:29;15.45;;;11.57;;
23782;SDS011;12071;50.850;4.446;2024-01-07T02:42:55;16.48;;;12.13;;
23782;SDS011;12071;50.850;4.446;2024-01-07T02:45:21;16.55;;;12.98;;
23782;SDS011;12071;50.850;4.446;2024-01-07T02:47:47;16.50;;;12.13;;
23782;SDS011;12071;50.850;4.446;2024-01-07T02:50:13;16.63;;;12.20;;
23782;SDS011;12071;50.850;4.446;2024-01-07T02:52:39;17.67;;;12.55;;
23782;SDS011;12071;50.850;4.446;2024-01-07T02:55:04;19.58;;;13.43;;
23782;SDS011;12071;50.850;4.446;2024-01-07T02:57:31;17.52;;;13.07;;
23782;SDS011;12071;50.850;4.446;2024-01-07T02:59:57;18.83;;;13.52;;
23782;SDS011;12071;50.850;4.446;2024-01-07T03:02:23;18.30;;;13.88;;
23782;SDS011;12071;50.850;4.446;2024-01-07T03:04:49;21.17;;;15.25;;
23782;SDS011;12071;50.850;4.446;2024-01-07T03:07:14;21.55;;;15.32;;
23782;SDS011;12071;50.850;4.446;2024-01-07T03:09:40;21.10;;;15.88;;
23782;SDS011;12071;50.850;4.446;2024-01-07T03:12:06;22.48;;;16.05;;
23782;SDS011;12071;50.850;4.446;2024-01-07T03:14:32;22.73;;;15.63;;
23782;SDS011;12071;50.850;4.446;2024-01-07T03:16:57;23.95;;;17.15;;
23782;SDS011;12071;50.850;4.446;2024-01-07T03:19:23;24.58;;;17.60;;
23782;SDS011;12071;50.850;4.446;2024-01-07T03:21:49;24.42;;;17.13;;
23782;SDS011;12071;50.850;4.446;2024-01-07T03:24:15;24.02;;;16.85;;
23782;SDS011;12071;50.850;4.446;2024-01-07T03:26:41;26.52;;;17.92;;
23782;SDS011;12071;50.850;4.446;2024-01-07T03:29:06;24.10;;;17.25;;
23782;SDS011;12071;50.850;4.446;2024-01-07T03:31:32;25.00;;;16.77;;
23782;SDS011;12071;50.850;4.446;2024-01-07T03:33:58;25.88;;;17.42;;
23782;SDS011;12071;50.850;4.446;2024-01-07T03:36:25;25.15;;;17.77;;
23782;SDS011;12071;50.850;4.446;2024-01-07T03:38:50;27.15;;;18.10;;
23782;SDS011;12071;50.850;4.446;2024-01-07T03:41:17;25.60;;;17.65;;
23782;SDS011;12071;50.850;4.446;2024-01-07T03:43:44;25.05;;;17.67;;
23782;SDS011;12071;50.850;4.446;2024-01-07T03:46:13;27.80;;;19.00;;
23782;SDS011;12071;50.850;4.446;2024-01-07T03:48:40;27.20;;;18.63;;
23782;SDS011;12071;50.850;4.446;2024-01-07T03:51:07;26.70;;;18.50;;
23782;SDS011;12071;50.850;4.446;2024-01-07T03:53:33;27.27;;;18.48;;
23782;SDS011;12071;50.850;4.446;2024-01-07T03:55:59;27.42;;;19.02;;
23782;SDS011;12071;50.850;4.446;2024-01-07T03:58:25;30.65;;;20.90;;
23782;SDS011;12071;50.850;4.446;2024-01-07T04:00:51;31.55;;;20.23;;
23782;SDS011;12071;50.850;4.446;2024-01-07T04:03:17;31.50;;;20.42;;
23782;SDS011;12071;50.850;4.446;2024-01-07T04:05:42;30.70;;;20.65;;
23782;SDS011;12071;50.850;4.446;2024-01-07T04:08:10;32.30;;;21.02;;
23782;SDS011;12071;50.850;4.446;2024-01-07T04:10:36;37.90;;;22.38;;
23782;SDS011;12071;50.850;4.446;2024-01-07T04:13:03;38.92;;;22.98;;
23782;SDS011;12071;50.850;4.446;2024-01-07T04:15:29;42.05;;;26.02;;
23782;SDS011;12071;50.850;4.446;2024-01-07T04:17:55;44.20;;;27.73;;
23782;SDS011;12071;50.850;4.446;2024-01-07T04:20:21;46.85;;;27.63;;
23782;SDS011;12071;50.850;4.446;2024-01-07T04:22:46;44.38;;;29.33;;
23782;SDS011;12071;50.850;4.446;2024-01-07T04:25:12;48.95;;;30.27;;
23782;SDS011;12071;50.850;4.446;2024-01-07T04:27:38;46.03;;;28.60;;
23782;SDS011;12071;50.850;4.446;2024-01-07T04:30:04;49.30;;;29.00;;
23782;SDS011;12071;50.850;4.446;2024-01-07T04:32:30;46.42;;;29.13;;
23782;SDS011;12071;50.850;4.446;2024-01-07T04:34:56;46.38;;;28.42;;
23782;SDS011;12071;50.850;4.446;2024-01-07T04:37:23;48.85;;;29.40;;
23782;SDS011;12071;50.850;4.446;2024-01-07T04:39:49;47.47;;;27.80;;
23782;SDS011;12071;50.850;4.446;2024-01-07T04:42:15;44.00;;;27.35;;
23782;SDS011;12071;50.850;4.446;2024-01-07T04:44:42;46.63;;;28.25;;
23782;SDS011;12071;50.850;4.446;2024-01-07T04:50:08;44.70;;;27.63;;
23782;SDS011;12071;50.850;4.446;2024-01-07T04:52:34;43.30;;;26.60;;
23782;SDS011;12071;50.850;4.446;2024-01-07T04:55:00;42.25;;;26.40;;
23782;SDS011;12071;50.850;4.446;2024-01-07T04:57:25;44.13;;;27.27;;
23782;SDS011;12071;50.850;4.446;2024-01-07T04:59:51;44.00;;;27.10;;
23782;SDS011;12071;50.850;4.446;2024-01-07T05:02:17;48.38;;;29.02;;
23782;SDS011;12071;50.850;4.446;2024-01-07T05:04:43;45.58;;;27.80;;
23782;SDS011;12071;50.850;4.446;2024-01-07T05:07:09;45.85;;;27.77;;
23782;SDS011;12071;50.850;4.446;2024-01-07T05:09:35;47.67;;;28.70;;
23782;SDS011;12071;50.850;4.446;2024-01-07T05:12:00;46.90;;;28.38;;
23782;SDS011;12071;50.850;4.446;2024-01-07T05:14:26;50.13;;;29.05;;
23782;SDS011;12071;50.850;4.446;2024-01-07T05:16:53;43.13;;;27.08;;
23782;SDS011;12071;50.850;4.446;2024-01-07T05:19:19;48.35;;;28.67;;
23782;SDS011;12071;50.850;4.446;2024-01-07T05:21:45;53.95;;;30.52;;
23782;SDS011;12071;50.850;4.446;2024-01-07T05:24:11;54.13;;;30.65;;
23782;SDS011;12071;50.850;4.446;2024-01-07T05:26:40;50.20;;;29.70;;
23782;SDS011;12071;50.850;4.446;2024-01-07T05:29:08;49.90;;;29.98;;
23782;SDS011;12071;50.850;4.446;2024-01-07T05:31:33;52.10;;;30.65;;
23782;SDS011;12071;50.850;4.446;2024-01-07T05:33:59;45.05;;;28.00;;
23782;SDS011;12071;50.850;4.446;2024-01-07T05:36:25;49.00;;;29.88;;
23782;SDS011;12071;50.850;4.446;2024-01-07T05:38:50;48.15;;;28.98;;
23782;SDS011;12071;50.850;4.446;2024-01-07T05:41:16;48.95;;;29.35;;
23782;SDS011;12071;50.850;4.446;2024-01-07T05:43:42;47.25;;;29.45;;
23782;SDS011;12071;50.850;4.446;2024-01-07T05:46:07;49.63;;;29.65;;
23782;SDS011;12071;50.850;4.446;2024-01-07T05:48:43;58.15;;;32.70;;
23782;SDS011;12071;50.850;4.446;2024-01-07T05:51:09;52.55;;;30.77;;
23782;SDS011;12071;50.850;4.446;2024-01-07T05:53:35;49.15;;;28.45;;
23782;SDS011;12071;50.850;4.446;2024-01-07T05:56:01;47.60;;;29.23;;
23782;SDS011;12071;50.850;4.446;2024-01-07T05:58:28;49.75;;;28.83;;
23782;SDS011;12071;50.850;4.446;2024-01-07T06:00:54;48.75;;;30.05;;
23782;SDS011;12071;50.850;4.446;2024-01-07T06:03:20;47.20;;;27.92;;
23782;SDS011;12071;50.850;4.446;2024-01-07T06:05:45;45.95;;;28.08;;
23782;SDS011;12071;50.850;4.446;2024-01-07T06:08:11;48.35;;;28.98;;
23782;SDS011;12071;50.850;4.446;2024-01-07T06:10:38;51.20;;;30.00;;
23782;SDS011;12071;50.850;4.446;2024-01-07T06:13:04;51.55;;;29.95;;
23782;SDS011;12071;50.850;4.446;2024-01-07T06:15:30;49.72;;;28.63;;
23782;SDS011;12071;50.850;4.446;2024-01-07T06:17:55;51.30;;;29.33;;
23782;SDS011;12071;50.850;4.446;2024-01-07T06:20:21;50.10;;;28.35;;
23782;SDS011;12071;50.850;4.446;2024-01-07T06:22:47;50.70;;;28.67;;
23782;SDS011;12071;50.850;4.446;2024-01-07T06:25:13;48.63;;;28.98;;
23782;SDS011;12071;50.850;4.446;2024-01-07T06:27:39;51.08;;;28.95;;
23782;SDS011;12071;50.850;4.446;2024-01-07T06:30:05;52.90;;;28.30;;
23782;SDS011;12071;50.850;4.446;2024-01-07T06:32:31;54.22;;;29.00;;
23782;SDS011;12071;50.850;4.446;2024-01-07T06:34:57;50.53;;;28.45;;
23782;SDS011;12071;50.850;4.446;2024-01-07T06:37:23;53.72;;;29.40;;
23782;SDS011;12071;50.850;4.446;2024-01-07T06:39:49;50.35;;;28.70;;
23782;SDS011;12071;50.850;4.446;2024-01-07T06:42:15;51.40;;;27.75;;
23782;SDS011;12071;50.850;4.446;2024-01-07T06:44:41;46.55;;;27.50;;
23782;SDS011;12071;50.850;4.446;2024-01-07T06:47:07;52.67;;;27.90;;
23782;SDS011;12071;50.850;4.446;2024-01-07T06:49:33;52.80;;;26.83;;
23782;SDS011;12071;50.850;4.446;2024-01-07T06:51:58;51.22;;;26.38;;
23782;SDS011;12071;50.850;4.446;2024-01-07T06:54:25;54.30;;;27.95;;
23782;SDS011;12071;50.850;4.446;2024-01-07T06:56:51;50.25;;;26.13;;
23782;SDS011;12071;50.850;4.446;2024-01-07T06:59:17;54.92;;;27.55;;
23782;SDS011;12071;50.850;4.446;2024-01-07T07:01:43;49.38;;;26.20;;
23782;SDS011;12071;50.850;4.446;2024-01-07T07:04:09;52.97;;;26.00;;
23782;SDS011;12071;50.850;4.446;2024-01-07T07:06:34;56.75;;;29.23;;
23782;SDS011;12071;50.850;4.446;2024-01-07T07:09:00;52.00;;;27.30;;
23782;SDS011;12071;50.850;4.446;2024-01-07T07:11:26;84.47;;;27.92;;
23782;SDS011;12071;50.850;4.446;2024-01-07T07:13:52;50.08;;;26.48;;
23782;SDS011;12071;50.850;4.446;2024-01-07T07:16:17;58.33;;;28.85;;
23782;SDS011;12071;50.850;4.446;2024-01-07T07:18:43;53.17;;;28.00;;
23782;SDS011;12071;50.850;4.446;2024-01-07T07:21:09;64.38;;;29.02;;
23782;SDS011;12071;50.850;4.446;2024-01-07T07:23:34;58.80;;;30.58;;
23782;SDS011;12071;50.850;4.446;2024-01-07T07:26:00;61.38;;;29.27;;
23782;SDS011;12071;50.850;4.446;2024-01-07T07:28:26;60.08;;;29.10;;
23782;SDS011;12071;50.850;4.446;2024-01-07T07:30:52;65.22;;;31.33;;
23782;SDS011;12071;50.850;4.446;2024-01-07T07:33:18;61.65;;;31.33;;
23782;SDS011;12071;50.850;4.446;2024-01-07T07:35:44;64.82;;;30.77;;
23782;SDS011;12071;50.850;4.446;2024-01-07T07:38:10;68.07;;;34.40;;
23782;SDS011;12071;50.850;4.446;2024-01-07T07:40:36;66.82;;;30.10;;
23782;SDS011;12071;50.850;4.446;2024-01-07T07:43:02;64.68;;;31.75;;
23782;SDS011;12071;50.850;4.446;2024-01-07T07:45:27;66.97;;;32.47;;
23782;SDS011;12071;50.850;4.446;2024-01-07T07:47:53;63.08;;;32.33;;
23782;SDS011;12071;50.850;4.446;2024-01-07T07:50:19;77.68;;;34.50;;
23782;SDS011;12071;50.850;4.446;2024-01-07T07:52:44;73.13;;;35.95;;
23782;SDS011;12071;50.850;4.446;2024-01-07T07:55:10;64.85;;;33.05;;
23782;SDS011;12071;50.850;4.446;2024-01-07T07:57:36;65.68;;;33.35;;
23782;SDS011;12071;50.850;4.446;2024-01-07T08:00:06;68.70;;;33.85;;
23782;SDS011;12071;50.850;4.446;2024-01-07T08:02:32;68.47;;;33.17;;
23782;SDS011;12071;50.850;4.446;2024-01-07T08:04:58;67.65;;;33.72;;
23782;SDS011;12071;50.850;4.446;2024-01-07T08:07:24;62.70;;;31.60;;
23782;SDS011;12071;50.850;4.446;2024-01-07T08:09:50;70.63;;;33.88;;
23782;SDS011;12071;50.850;4.446;2024-01-07T08:12:16;61.88;;;31.75;;
23782;SDS011;12071;50.850;4.446;2024-01-07T08:14:42;61.22;;;31.10;;
23782;SDS011;12071;50.850;4.446;2024-01-07T08:17:08;62.00;;;31.80;;
23782;SDS011;12071;50.850;4.446;2024-01-07T08:19:33;64.05;;;31.52;;
23782;SDS011;12071;50.850;4.446;2024-01-07T08:21:59;56.53;;;30.33;;
23782;SDS011;12071;50.850;4.446;2024-01-07T08:24:25;63.53;;;32.95;;
23782;SDS011;12071;50.850;4.446;2024-01-07T08:26:50;59.95;;;29.88;;
23782;SDS011;12071;50.850;4.446;2024-01-07T08:29:17;55.35;;;28.15;;
23782;SDS011;12071;50.850;4.446;2024-01-07T08:31:42;56.92;;;30.13;;
23782;SDS011;12071;50.850;4.446;2024-01-07T08:34:08;55.92;;;28.33;;
23782;SDS011;12071;50.850;4.446;2024-01-07T08:36:34;59.30;;;29.13;;
23782;SDS011;12071;50.850;4.446;2024-01-07T08:38:59;54.67;;;28.65;;
23782;SDS011;12071;50.850;4.446;2024-01-07T08:41:26;52.70;;;27.20;;
23782;SDS011;12071;50.850;4.446;2024-01-07T08:43:51;47.47;;;25.75;;
23782;SDS011;12071;50.850;4.446;2024-01-07T08:46:20;47.00;;;25.75;;
23782;SDS011;12071;50.850;4.446;2024-01-07T08:48:46;48.25;;;26.75;;
23782;SDS011;12071;50.850;4.446;2024-01-07T08:51:12;46.55;;;25.80;;
23782;SDS011;12071;50.850;4.446;2024-01-07T08:53:39;45.80;;;24.98;;
23782;SDS011;12071;50.850;4.446;2024-01-07T08:56:05;41.17;;;22.67;;
23782;SDS011;12071;50.850;4.446;2024-01-07T08:58:32;40.75;;;23.35;;
23782;SDS011;12071;50.850;4.446;2024-01-07T09:00:58;42.17;;;23.15;;
23782;SDS011;12071;50.850;4.446;2024-01-07T09:03:23;41.50;;;23.25;;
23782;SDS011;12071;50.850;4.446;2024-01-07T09:05:49;34.03;;;21.38;;
23782;SDS011;12071;50.850;4.446;2024-01-07T09:08:15;39.88;;;22.77;;
23782;SDS011;12071;50.850;4.446;2024-01-07T09:10:41;35.80;;;21.98;;
23782;SDS011;12071;50.850;4.446;2024-01-07T09:13:07;40.00;;;23.10;;
23782;SDS011;12071;50.850;4.446;2024-01-07T09:15:32;35.95;;;23.33;;
23782;SDS011;12071;50.850;4.446;2024-01-07T09:17:58;38.03;;;23.83;;
23782;SDS011;12071;50.850;4.446;2024-01-07T09:20:24;40.58;;;23.38;;
23782;SDS011;12071;50.850;4.446;2024-01-07T09:22:49;34.80;;;22.88;;
23782;SDS011;12071;50.850;4.446;2024-01-07T09:25:15;39.92;;;24.10;;
23782;SDS011;12071;50.850;4.446;2024-01-07T09:27:41;37.42;;;23.85;;
23782;SDS011;12071;50.850;4.446;2024-01-07T09:30:08;40.50;;;23.95;;
23782;SDS011;12071;50.850;4.446;2024-01-07T09:32:35;38.78;;;24.58;;
23782;SDS011;12071;50.850;4.446;2024-01-07T09:35:01;37.78;;;23.10;;
23782;SDS011;12071;50.850;4.446;2024-01-07T09:37:28;38.38;;;24.77;;
23782;SDS011;12071;50.850;4.446;2024-01-07T09:39:53;37.90;;;22.90;;
23782;SDS011;12071;50.850;4.446;2024-01-07T09:42:19;35.92;;;23.17;;
23782;SDS011;12071;50.850;4.446;2024-01-07T09:44:45;34.67;;;21.48;;
23782;SDS011;12071;50.850;4.446;2024-01-07T09:47:12;35.55;;;22.17;;
23782;SDS011;12071;50.850;4.446;2024-01-07T09:49:40;34.55;;;22.95;;
23782;SDS011;12071;50.850;4.446;2024-01-07T09:52:11;34.92;;;22.52;;
23782;SDS011;12071;50.850;4.446;2024-01-07T09:54:37;36.50;;;24.10;;
23782;SDS011;12071;50.850;4.446;2024-01-07T09:57:04;36.35;;;23.80;;
23782;SDS011;12071;50.850;4.446;2024-01-07T09:59:31;34.15;;;23.35;;
23782;SDS011;12071;50.850;4.446;2024-01-07T10:01:58;37.55;;;23.83;;
23782;SDS011;12071;50.850;4.446;2024-01-07T10:04:24;35.63;;;24.00;;
23782;SDS011;12071;50.850;4.446;2024-01-07T10:06:50;34.95;;;22.73;;
23782;SDS011;12071;50.850;4.446;2024-01-07T10:09:17;36.00;;;22.42;;
23782;SDS011;12071;50.850;4.446;2024-01-07T10:11:44;34.03;;;22.27;;
23782;SDS011;12071;50.850;4.446;2024-01-07T10:14:10;36.33;;;24.42;;
23782;SDS011;12071;50.850;4.446;2024-01-07T10:16:36;39.13;;;24.83;;
23782;SDS011;12071;50.850;4.446;2024-01-07T10:19:01;34.88;;;22.73;;
23782;SDS011;12071;50.850;4.446;2024-01-07T10:21:27;39.03;;;23.45;;
23782;SDS011;12071;50.850;4.446;2024-01-07T10:24:12;35.08;;;23.50;;
23782;SDS011;12071;50.850;4.446;2024-01-07T10:26:39;37.15;;;24.67;;
23782;SDS011;12071;50.850;4.446;2024-01-07T10:29:06;36.78;;;24.65;;
23782;SDS011;12071;50.850;4.446;2024-01-07T10:31:37;40.28;;;25.48;;
23782;SDS011;12071;50.850;4.446;2024-01-07T10:34:07;38.25;;;25.50;;
23782;SDS011;12071;50.850;4.446;2024-01-07T10:36:34;40.53;;;25.92;;
23782;SDS011;12071;50.850;4.446;2024-01-07T10:39:00;43.95;;;27.58;;
23782;SDS011;12071;50.850;4.446;2024-01-07T10:41:25;43.67;;;27.33;;
23782;SDS011;12071;50.850;4.446;2024-01-07T10:43:52;42.40;;;27.20;;
23782;SDS011;12071;50.850;4.446;2024-01-07T10:46:19;42.92;;;27.13;;
23782;SDS011;12071;50.850;4.446;2024-01-07T10:51:14;40.15;;;26.65;;
23782;SDS011;12071;50.850;4.446;2024-01-07T10:53:40;42.25;;;27.80;;
23782;SDS011;12071;50.850;4.446;2024-01-07T10:56:10;39.33;;;26.35;;
23782;SDS011;12071;50.850;4.446;2024-01-07T10:58:37;44.25;;;27.52;;
23782;SDS011;12071;50.850;4.446;2024-01-07T11:01:05;40.55;;;26.13;;
23782;SDS011;12071;50.850;4.446;2024-01-07T11:06:20;39.45;;;27.25;;
23782;SDS011;12071;50.850;4.446;2024-01-07T11:12:16;35.50;;;25.45;;
23782;SDS011;12071;50.850;4.446;2024-01-07T11:14:43;35.95;;;24.00;;
23782;SDS011;12071;50.850;4.446;2024-01-07T11:20:02;37.22;;;22.60;;
23782;SDS011;12071;50.850;4.446;2024-01-07T11:22:32;31.90;;;20.88;;
23782;SDS011;12071;50.850;4.446;2024-01-07T11:24:58;29.67;;;20.00;;
23782;SDS011;12071;50.850;4.446;2024-01-07T11:27:29;33.38;;;21.42;;
23782;SDS011;12071;50.850;4.446;2024-01-07T11:30:03;30.40;;;20.08;;
23782;SDS011;12071;50.850;4.446;2024-01-07T11:32:44;32.95;;;20.00;;
23782;SDS011;12071;50.850;4.446;2024-01-07T11:35:12;29.05;;;18.63;;
23782;SDS011;12071;50.850;4.446;2024-01-07T11:37:38;29.17;;;18.70;;
23782;SDS011;12071;50.850;4.446;2024-01-07T11:40:05;31.10;;;19.98;;
23782;SDS011;12071;50.850;4.446;2024-01-07T11:42:32;31.17;;;19.80;;
23782;SDS011;12071;50.850;4.446;2024-01-07T11:44:58;54.13;;;28.00;;
23782;SDS011;12071;50.850;4.446;2024-01-07T11:47:23;75.63;;;34.95;;
23782;SDS011;12071;50.850;4.446;2024-01-07T11:49:53;37.83;;;21.92;;
23782;SDS011;12071;50.850;4.446;2024-01-07T11:52:18;33.63;;;19.30;;
23782;SDS011;12071;50.850;4.446;2024-01-07T11:54:45;29.88;;;19.10;;
23782;SDS011;12071;50.850;4.446;2024-01-07T11:57:12;34.88;;;19.83;;
23782;SDS011;12071;50.850;4.446;2024-01-07T11:59:39;28.02;;;18.27;;
23782;SDS011;12071;50.850;4.446;2024-01-07T12:02:05;29.52;;;18.50;;
23782;SDS011;12071;50.850;4.446;2024-01-07T12:04:31;30.40;;;18.98;;
23782;SDS011;12071;50.850;4.446;2024-01-07T12:06:57;29.25;;;19.13;;
23782;SDS011;12071;50.850;4.446;2024-01-07T12:09:24;27.75;;;17.92;;
23782;SDS011;12071;50.850;4.446;2024-01-07T12:11:53;33.10;;;20.30;;
23782;SDS011;12071;50.850;4.446;2024-01-07T12:14:19;28.98;;;18.65;;
23782;SDS011;12071;50.850;4.446;2024-01-07T12:16:45;29.55;;;19.35;;
23782;SDS011;12071;50.850;4.446;2024-01-07T12:19:11;32.83;;;19.05;;
23782;SDS011;12071;50.850;4.446;2024-01-07T12:21:38;31.55;;;18.50;;
23782;SDS011;12071;50.850;4.446;2024-01-07T12:24:04;27.65;;;18.08;;
23782;SDS011;12071;50.850;4.446;2024-01-07T12:26:30;30.10;;;17.50;;
23782;SDS011;12071;50.850;4.446;2024-01-07T12:28:58;29.63;;;17.55;;
23782;SDS011;12071;50.850;4.446;2024-01-07T12:31:29;27.37;;;17.63;;
23782;SDS011;12071;50.850;4.446;2024-01-07T12:33:58;25.63;;;17.00;;
23782;SDS011;12071;50.850;4.446;2024-01-07T12:36:24;26.25;;;17.73;;
23782;SDS011;12071;50.850;4.446;2024-01-07T12:38:51;24.75;;;16.90;;
23782;SDS011;12071;50.850;4.446;2024-01-07T12:41:21;30.30;;;18.40;;
23782;SDS011;12071;50.850;4.446;2024-01-07T12:43:48;25.10;;;16.92;;
23782;SDS011;12071;50.850;4.446;2024-01-07T12:46:14;26.80;;;16.90;;
23782;SDS011;12071;50.850;4.446;2024-01-07T12:48:40;27.98;;;16.67;;
23782;SDS011;12071;50.850;4.446;2024-01-07T12:51:06;25.52;;;16.35;;
23782;SDS011;12071;50.850;4.446;2024-01-07T12:53:32;26.67;;;17.42;;
23782;SDS011;12071;50.850;4.446;2024-01-07T12:55:57;25.88;;;16.60;;
23782;SDS011;12071;50.850;4.446;2024-01-07T12:58:23;24.77;;;16.02;;
23782;SDS011;12071;50.850;4.446;2024-01-07T13:00:49;23.58;;;15.48;;
23782;SDS011;12071;50.850;4.446;2024-01-07T13:03:15;28.35;;;17.10;;
23782;SDS011;12071;50.850;4.446;2024-01-07T13:05:44;26.50;;;16.35;;
23782;SDS011;12071;50.850;4.446;2024-01-07T13:08:15;24.73;;;17.50;;
23782;SDS011;12071;50.850;4.446;2024-01-07T13:10:41;24.27;;;16.98;;
23782;SDS011;12071;50.850;4.446;2024-01-07T13:13:07;23.20;;;17.02;;
23782;SDS011;12071;50.850;4.446;2024-01-07T13:15:35;25.27;;;16.35;;
23782;SDS011;12071;50.850;4.446;2024-01-07T13:18:01;24.67;;;16.10;;
23782;SDS011;12071;50.850;4.446;2024-01-07T13:20:27;22.70;;;15.65;;
23782;SDS011;12071;50.850;4.446;2024-01-07T13:22:53;21.85;;;15.45;;
23782;SDS011;12071;50.850;4.446;2024-01-07T13:25:18;22.02;;;15.40;;
23782;SDS011;12071;50.850;4.446;2024-01-07T13:27:44;22.15;;;15.88;;
23782;SDS011;12071;50.850;4.446;2024-01-07T13:30:10;22.85;;;15.55;;
23782;SDS011;12071;50.850;4.446;2024-01-07T13:32:36;23.63;;;15.82;;
23782;SDS011;12071;50.850;4.446;2024-01-07T13:35:05;25.65;;;16.40;;
23782;SDS011;12071;50.850;4.446;2024-01-07T13:37:35;22.80;;;17.10;;
23782;SDS011;12071;50.850;4.446;2024-01-07T13:40:01;25.10;;;16.23;;
23782;SDS011;12071;50.850;4.446;2024-01-07T13:42:28;23.83;;;16.45;;
23782;SDS011;12071;50.850;4.446;2024-01-07T13:44:54;21.95;;;16.27;;
23782;SDS011;12071;50.850;4.446;2024-01-07T13:47:20;21.05;;;15.98;;
23782;SDS011;12071;50.850;4.446;2024-01-07T13:49:46;21.13;;;15.57;;
23782;SDS011;12071;50.850;4.446;2024-01-07T13:52:12;24.08;;;16.55;;
23782;SDS011;12071;50.850;4.446;2024-01-07T13:54:38;22.50;;;16.30;;
23782;SDS011;12071;50.850;4.446;2024-01-07T13:57:04;19.83;;;15.65;;
23782;SDS011;12071;50.850;4.446;2024-01-07T13:59:29;18.75;;;15.73;;
23782;SDS011;12071;50.850;4.446;2024-01-07T14:01:55;22.48;;;16.00;;
23782;SDS011;12071;50.850;4.446;2024-01-07T14:04:23;20.15;;;15.25;;
23782;SDS011;12071;50.850;4.446;2024-01-07T14:06:58;19.15;;;15.02;;
23782;SDS011;12071;50.850;4.446;2024-01-07T14:09:24;17.88;;;14.50;;
23782;SDS011;12071;50.850;4.446;2024-01-07T14:11:50;18.20;;;14.77;;
23782;SDS011;12071;50.850;4.446;2024-01-07T14:14:17;18.15;;;14.75;;
23782;SDS011;12071;50.850;4.446;2024-01-07T14:16:44;19.95;;;15.45;;
23782;SDS011;12071;50.850;4.446;2024-01-07T14:19:10;18.33;;;14.90;;
23782;SDS011;12071;50.850;4.446;2024-01-07T14:21:37;19.25;;;14.57;;
23782;SDS011;12071;50.850;4.446;2024-01-07T14:24:02;18.48;;;14.43;;
23782;SDS011;12071;50.850;4.446;2024-01-07T14:26:28;21.48;;;15.20;;
23782;SDS011;12071;50.850;4.446;2024-01-07T14:28:54;18.55;;;15.13;;
23782;SDS011;12071;50.850;4.446;2024-01-07T14:31:20;21.10;;;15.63;;